KLM965 EHAM-GMMN
Flight info
| Callsign | KLM965 |
|---|---|
| Flight time | N/A |
| Altitude | 23000 |
| Route | WOODY N872 CIV/N0453F350 DCT KOVIN DCT DUCRA DCT RESMI DCT DEKOD DCT DISAK DCT ARKIP DCT ARNAV DCT LMG DCT UVELI DCT OSMOB DCT ARVID DCT PPN/N0456F370 DCT NOLSA DCT ALEPO DCT VASUM DCT BANEV DCT BAN DCT PINAR DCT CJN L27 BLN DCT MGA DCT PIMOS DCT GALTO UB11 TUSOR |
| Aircraft | A320/M-SDE3FGHIRWY/LB1 |
Departure
| Time | N/A |
|---|---|
| Airport | Amsterdam Airport Schiphol (EHAM) |
Arrival
| Time | 2026-05-06 08:42 |
|---|---|
| Airport | Mohammed V International Airport (GMMN) |
| Time | Latitude | Longitude | Altitude | Speed | Heading |
|---|---|---|---|---|---|
| 2026-05-06 07:27 | 39.58175 | -2.93786 | 34964 ft | 413 kts | 207° |
| 2026-05-06 07:27 | 39.55484 | -2.95109 | 34963 ft | 413 kts | 207° |
| 2026-05-06 07:28 | 39.50114 | -2.97753 | 34965 ft | 413 kts | 207° |
| 2026-05-06 07:28 | 39.42066 | -3.01717 | 34968 ft | 412 kts | 207° |
| 2026-05-06 07:29 | 39.36697 | -3.04346 | 34965 ft | 412 kts | 207° |
| 2026-05-06 07:29 | 39.31332 | -3.06955 | 34961 ft | 412 kts | 207° |
| 2026-05-06 07:30 | 39.25961 | -3.09567 | 34961 ft | 412 kts | 207° |
| 2026-05-06 07:30 | 39.20595 | -3.12176 | 34959 ft | 412 kts | 207° |
| 2026-05-06 07:31 | 39.15231 | -3.14774 | 34955 ft | 412 kts | 207° |
| 2026-05-06 07:31 | 39.09865 | -3.17367 | 34957 ft | 412 kts | 207° |
| 2026-05-06 07:32 | 39.04505 | -3.19953 | 34955 ft | 411 kts | 207° |
| 2026-05-06 07:32 | 38.99141 | -3.22540 | 34954 ft | 411 kts | 207° |
| 2026-05-06 07:33 | 38.93816 | -3.25104 | 34956 ft | 411 kts | 207° |
| 2026-05-06 07:33 | 38.88461 | -3.27680 | 34955 ft | 411 kts | 207° |
| 2026-05-06 07:34 | 38.83099 | -3.30246 | 34951 ft | 411 kts | 207° |
| 2026-05-06 07:34 | 38.77741 | -3.32812 | 34948 ft | 411 kts | 207° |
| 2026-05-06 07:35 | 38.72392 | -3.35376 | 34954 ft | 410 kts | 207° |
| 2026-05-06 07:35 | 38.67041 | -3.37941 | 34950 ft | 410 kts | 207° |
| 2026-05-06 07:36 | 38.61690 | -3.40489 | 34950 ft | 410 kts | 207° |
| 2026-05-06 07:36 | 38.56343 | -3.43030 | 34949 ft | 410 kts | 207° |
| 2026-05-06 07:37 | 38.50992 | -3.45574 | 34948 ft | 410 kts | 207° |
| 2026-05-06 07:37 | 38.45651 | -3.48109 | 34949 ft | 410 kts | 207° |
| 2026-05-06 07:38 | 38.40338 | -3.50625 | 34948 ft | 410 kts | 207° |
| 2026-05-06 07:38 | 38.34999 | -3.53152 | 34947 ft | 410 kts | 206° |
| 2026-05-06 07:39 | 38.29649 | -3.55678 | 34946 ft | 410 kts | 207° |
| 2026-05-06 07:39 | 38.24299 | -3.58200 | 34942 ft | 410 kts | 207° |
| 2026-05-06 07:40 | 38.18957 | -3.60722 | 34939 ft | 410 kts | 206° |
| 2026-05-06 07:40 | 38.13626 | -3.63278 | 34935 ft | 408 kts | 208° |
| 2026-05-06 07:41 | 38.08433 | -3.66170 | 34935 ft | 407 kts | 211° |
| 2026-05-06 07:41 | 38.03305 | -3.69195 | 34936 ft | 407 kts | 211° |
| 2026-05-06 07:42 | 37.98146 | -3.72170 | 34933 ft | 407 kts | 210° |
| 2026-05-06 07:42 | 37.92963 | -3.75094 | 34936 ft | 408 kts | 210° |
| 2026-05-06 07:43 | 37.87805 | -3.77988 | 34933 ft | 408 kts | 210° |
| 2026-05-06 07:43 | 37.82611 | -3.80897 | 34932 ft | 408 kts | 210° |
| 2026-05-06 07:44 | 37.77421 | -3.83811 | 34935 ft | 408 kts | 210° |
| 2026-05-06 07:44 | 37.72224 | -3.86729 | 34937 ft | 409 kts | 210° |
| 2026-05-06 07:45 | 37.67026 | -3.89639 | 34934 ft | 409 kts | 210° |
| 2026-05-06 07:45 | 37.61825 | -3.92548 | 34930 ft | 409 kts | 209° |
| 2026-05-06 07:46 | 37.56624 | -3.95458 | 34940 ft | 409 kts | 209° |
| 2026-05-06 07:46 | 37.51452 | -3.98344 | 34935 ft | 409 kts | 209° |
| 2026-05-06 07:47 | 37.46243 | -4.01237 | 34931 ft | 409 kts | 209° |
| 2026-05-06 07:47 | 37.41037 | -4.04133 | 34938 ft | 409 kts | 209° |
| 2026-05-06 07:48 | 37.35829 | -4.07026 | 34938 ft | 409 kts | 209° |
| 2026-05-06 07:48 | 37.30617 | -4.09918 | 34937 ft | 409 kts | 209° |
| 2026-05-06 07:49 | 37.25405 | -4.12799 | 34940 ft | 409 kts | 209° |
| 2026-05-06 07:49 | 37.20185 | -4.15676 | 34935 ft | 410 kts | 209° |
| 2026-05-06 07:50 | 37.14965 | -4.18552 | 34928 ft | 410 kts | 209° |
| 2026-05-06 07:50 | 37.09740 | -4.21429 | 34921 ft | 410 kts | 209° |
| 2026-05-06 07:51 | 37.04523 | -4.24298 | 34916 ft | 410 kts | 209° |
| 2026-05-06 07:51 | 36.99305 | -4.27171 | 34911 ft | 410 kts | 209° |
| 2026-05-06 07:52 | 36.94081 | -4.30036 | 34906 ft | 410 kts | 209° |
| 2026-05-06 07:52 | 36.88864 | -4.32885 | 34901 ft | 410 kts | 209° |
| 2026-05-06 07:53 | 36.83639 | -4.35740 | 34899 ft | 410 kts | 209° |
| 2026-05-06 07:53 | 36.78692 | -4.39126 | 34900 ft | 404 kts | 217° |
| 2026-05-06 07:54 | 36.73961 | -4.42902 | 34900 ft | 404 kts | 217° |
| 2026-05-06 07:54 | 36.69227 | -4.46660 | 34904 ft | 403 kts | 217° |
| 2026-05-06 07:55 | 36.64489 | -4.50413 | 34905 ft | 403 kts | 217° |
| 2026-05-06 07:55 | 36.59760 | -4.54168 | 34904 ft | 403 kts | 217° |
| 2026-05-06 07:56 | 36.55026 | -4.57912 | 34907 ft | 403 kts | 217° |
| 2026-05-06 07:56 | 36.50320 | -4.61624 | 34908 ft | 403 kts | 217° |
| 2026-05-06 07:57 | 36.45588 | -4.65360 | 34913 ft | 403 kts | 217° |
| 2026-05-06 07:57 | 36.40862 | -4.69086 | 34917 ft | 402 kts | 217° |
| 2026-05-06 07:58 | 36.36135 | -4.72810 | 34920 ft | 402 kts | 217° |
| 2026-05-06 07:58 | 36.31410 | -4.76524 | 34920 ft | 402 kts | 217° |
| 2026-05-06 07:59 | 36.26680 | -4.80223 | 34923 ft | 402 kts | 217° |
| 2026-05-06 07:59 | 36.21954 | -4.83922 | 34927 ft | 402 kts | 217° |
| 2026-05-06 08:00 | 36.17233 | -4.87614 | 34930 ft | 402 kts | 217° |
| 2026-05-06 08:00 | 36.12509 | -4.91314 | 34931 ft | 401 kts | 217° |
| 2026-05-06 08:01 | 36.07807 | -4.95037 | 34937 ft | 401 kts | 217° |
| 2026-05-06 08:01 | 36.03113 | -4.98766 | 34933 ft | 401 kts | 217° |
| 2026-05-06 08:02 | 35.98450 | -5.02462 | 34933 ft | 401 kts | 217° |
| 2026-05-06 08:02 | 35.93748 | -5.06166 | 34928 ft | 401 kts | 217° |
| 2026-05-06 08:03 | 35.89037 | -5.09872 | 34920 ft | 401 kts | 217° |
| 2026-05-06 08:03 | 35.84324 | -5.13567 | 34927 ft | 401 kts | 217° |
| 2026-05-06 08:04 | 35.80389 | -5.16610 | 34924 ft | 402 kts | 216° |
| 2026-05-06 08:04 | 35.75591 | -5.20171 | 34918 ft | 403 kts | 215° |
| 2026-05-06 08:05 | 35.70777 | -5.23701 | 34930 ft | 403 kts | 215° |
| 2026-05-06 08:05 | 35.65973 | -5.27250 | 34930 ft | 403 kts | 216° |
| 2026-05-06 08:06 | 35.61173 | -5.30814 | 34938 ft | 403 kts | 216° |
| 2026-05-06 08:06 | 35.56482 | -5.34559 | 34932 ft | 401 kts | 219° |
| 2026-05-06 08:07 | 35.51997 | -5.38631 | 34928 ft | 401 kts | 220° |
| 2026-05-06 08:07 | 35.47532 | -5.42742 | 34920 ft | 401 kts | 220° |
| 2026-05-06 08:08 | 35.43024 | -5.46779 | 34926 ft | 402 kts | 219° |
| 2026-05-06 08:08 | 35.38476 | -5.50778 | 34930 ft | 402 kts | 219° |
| 2026-05-06 08:09 | 35.33933 | -5.54774 | 34939 ft | 402 kts | 219° |
| 2026-05-06 08:09 | 35.29386 | -5.58786 | 34946 ft | 402 kts | 219° |
| 2026-05-06 08:10 | 35.24871 | -5.62768 | 34955 ft | 403 kts | 219° |
| 2026-05-06 08:10 | 35.20292 | -5.66792 | 34961 ft | 402 kts | 219° |
| 2026-05-06 08:11 | 35.15744 | -5.70793 | 34968 ft | 403 kts | 219° |
| 2026-05-06 08:11 | 35.11227 | -5.74767 | 34972 ft | 403 kts | 219° |
| 2026-05-06 08:12 | 35.06669 | -5.78753 | 34974 ft | 403 kts | 219° |
| 2026-05-06 08:12 | 35.02105 | -5.82738 | 34975 ft | 403 kts | 219° |
| 2026-05-06 08:13 | 34.97543 | -5.86719 | 34980 ft | 403 kts | 219° |
| 2026-05-06 08:13 | 34.92978 | -5.90704 | 34972 ft | 403 kts | 218° |
| 2026-05-06 08:14 | 34.88450 | -5.94736 | 34981 ft | 403 kts | 220° |
| 2026-05-06 08:14 | 34.84117 | -5.99040 | 34975 ft | 402 kts | 223° |
| 2026-05-06 08:15 | 34.79836 | -6.03421 | 34979 ft | 402 kts | 222° |
| 2026-05-06 08:15 | 34.75518 | -6.07747 | 34979 ft | 402 kts | 221° |
| 2026-05-06 08:16 | 34.71173 | -6.12031 | 34969 ft | 402 kts | 221° |
| 2026-05-06 08:16 | 34.66828 | -6.16316 | 34977 ft | 402 kts | 221° |
| 2026-05-06 08:17 | 34.62489 | -6.20600 | 34977 ft | 402 kts | 221° |
| 2026-05-06 08:17 | 34.58174 | -6.24842 | 34978 ft | 401 kts | 221° |
| 2026-05-06 08:18 | 34.53836 | -6.29104 | 34980 ft | 401 kts | 221° |
| 2026-05-06 08:18 | 34.49282 | -6.32999 | 34970 ft | 405 kts | 210° |
| 2026-05-06 08:19 | 34.43897 | -6.35217 | 34981 ft | 411 kts | 201° |
| 2026-05-06 08:19 | 34.38409 | -6.37135 | 34975 ft | 410 kts | 201° |
| 2026-05-06 08:20 | 34.32931 | -6.39052 | 34979 ft | 410 kts | 201° |
| 2026-05-06 08:20 | 34.27465 | -6.40968 | 34984 ft | 409 kts | 202° |
| 2026-05-06 08:21 | 34.22008 | -6.42884 | 34985 ft | 408 kts | 202° |
| 2026-05-06 08:21 | 34.16563 | -6.44793 | 34984 ft | 407 kts | 202° |
| 2026-05-06 08:22 | 34.13842 | -6.45745 | 34751 ft | 406 kts | 202° |
| 2026-05-06 08:22 | 34.11129 | -6.46694 | 34511 ft | 406 kts | 202° |
| 2026-05-06 08:22 | 34.08421 | -6.47642 | 34273 ft | 406 kts | 202° |
| 2026-05-06 08:22 | 34.05706 | -6.48589 | 34039 ft | 406 kts | 202° |
| 2026-05-06 08:23 | 34.02990 | -6.49532 | 33777 ft | 406 kts | 202° |
| 2026-05-06 08:23 | 34.00279 | -6.50498 | 33424 ft | 405 kts | 204° |
| 2026-05-06 08:23 | 33.97703 | -6.51840 | 32441 ft | 403 kts | 213° |
| 2026-05-06 08:23 | 33.95363 | -6.53692 | 31452 ft | 403 kts | 221° |
| 2026-05-06 08:24 | 33.93315 | -6.55936 | 30545 ft | 404 kts | 227° |
| 2026-05-06 08:24 | 33.91300 | -6.58328 | 29417 ft | 410 kts | 226° |
| 2026-05-06 08:24 | 33.89240 | -6.60752 | 28345 ft | 414 kts | 226° |
| 2026-05-06 08:24 | 33.87193 | -6.63143 | 27827 ft | 406 kts | 226° |
| 2026-05-06 08:25 | 33.85171 | -6.65500 | 27165 ft | 403 kts | 225° |
| 2026-05-06 08:25 | 33.83175 | -6.67831 | 26517 ft | 399 kts | 226° |
| 2026-05-06 08:25 | 33.81189 | -6.70150 | 25888 ft | 396 kts | 226° |
| 2026-05-06 08:25 | 33.79216 | -6.72454 | 25260 ft | 394 kts | 226° |
| 2026-05-06 08:26 | 33.77257 | -6.74739 | 24649 ft | 392 kts | 225° |
| 2026-05-06 08:26 | 33.75309 | -6.77012 | 24044 ft | 390 kts | 225° |
| 2026-05-06 08:26 | 33.73366 | -6.79281 | 23416 ft | 388 kts | 225° |
| 2026-05-06 08:26 | 33.71433 | -6.81537 | 22786 ft | 386 kts | 225° |
| 2026-05-06 08:27 | 33.69519 | -6.83767 | 22246 ft | 382 kts | 226° |
| 2026-05-06 08:27 | 33.67619 | -6.85978 | 21703 ft | 379 kts | 226° |
| 2026-05-06 08:27 | 33.65641 | -6.88060 | 21178 ft | 378 kts | 218° |
| 2026-05-06 08:27 | 33.63402 | -6.89704 | 20656 ft | 378 kts | 208° |
| 2026-05-06 08:28 | 33.60953 | -6.90858 | 20153 ft | 378 kts | 201° |
| 2026-05-06 08:28 | 33.58462 | -6.91838 | 19653 ft | 376 kts | 201° |
| 2026-05-06 08:28 | 33.55984 | -6.92814 | 19170 ft | 373 kts | 201° |
| 2026-05-06 08:28 | 33.53521 | -6.93783 | 18679 ft | 371 kts | 201° |
| 2026-05-06 08:29 | 33.51073 | -6.94745 | 18181 ft | 370 kts | 201° |
| 2026-05-06 08:29 | 33.48635 | -6.95706 | 17656 ft | 367 kts | 201° |
| 2026-05-06 08:29 | 33.46215 | -6.96663 | 17151 ft | 365 kts | 201° |
| 2026-05-06 08:29 | 33.43812 | -6.97612 | 16655 ft | 362 kts | 201° |
| 2026-05-06 08:30 | 33.41425 | -6.98554 | 16149 ft | 360 kts | 201° |
| 2026-05-06 08:30 | 33.39048 | -6.99491 | 15641 ft | 359 kts | 201° |
| 2026-05-06 08:30 | 33.36707 | -7.00415 | 15126 ft | 358 kts | 201° |
| 2026-05-06 08:30 | 33.34342 | -7.01347 | 14601 ft | 358 kts | 201° |
| 2026-05-06 08:31 | 33.31980 | -7.02277 | 14074 ft | 357 kts | 201° |
| 2026-05-06 08:31 | 33.29620 | -7.03205 | 13513 ft | 357 kts | 201° |
| 2026-05-06 08:31 | 33.27263 | -7.04131 | 12963 ft | 355 kts | 201° |
| 2026-05-06 08:31 | 33.24928 | -7.05049 | 12421 ft | 352 kts | 200° |
| 2026-05-06 08:32 | 33.22642 | -7.06038 | 11875 ft | 347 kts | 207° |
| 2026-05-06 08:32 | 33.20616 | -7.07562 | 11334 ft | 342 kts | 221° |
| 2026-05-06 08:32 | 33.18994 | -7.09595 | 10824 ft | 337 kts | 234° |
| 2026-05-06 08:32 | 33.17862 | -7.11978 | 10623 ft | 324 kts | 248° |
| 2026-05-06 08:33 | 33.17232 | -7.14494 | 10506 ft | 311 kts | 259° |
| 2026-05-06 08:33 | 33.16849 | -7.16978 | 10385 ft | 298 kts | 259° |
| 2026-05-06 08:33 | 33.16478 | -7.19362 | 10260 ft | 287 kts | 259° |
| 2026-05-06 08:33 | 33.16115 | -7.21675 | 10059 ft | 279 kts | 259° |
| 2026-05-06 08:34 | 33.15757 | -7.23942 | 10003 ft | 278 kts | 259° |
| 2026-05-06 08:34 | 33.15037 | -7.28538 | 9254 ft | 282 kts | 259° |
| 2026-05-06 08:34 | 33.14679 | -7.30813 | 8716 ft | 277 kts | 259° |
| 2026-05-06 08:35 | 33.14330 | -7.33036 | 8017 ft | 275 kts | 259° |
| 2026-05-06 08:35 | 33.13978 | -7.35272 | 7304 ft | 274 kts | 259° |
| 2026-05-06 08:35 | 33.13627 | -7.37504 | 6605 ft | 274 kts | 259° |
| 2026-05-06 08:35 | 33.13277 | -7.39741 | 5871 ft | 273 kts | 259° |
| 2026-05-06 08:36 | 33.12929 | -7.41957 | 5210 ft | 269 kts | 259° |
| 2026-05-06 08:36 | 33.12591 | -7.44112 | 4830 ft | 254 kts | 261° |
| 2026-05-06 08:36 | 33.12548 | -7.46106 | 4766 ft | 229 kts | 277° |
| 2026-05-06 08:36 | 33.12942 | -7.47901 | 4717 ft | 223 kts | 292° |
| 2026-05-06 08:37 | 33.13708 | -7.49496 | 4642 ft | 222 kts | 307° |
| 2026-05-06 08:37 | 33.14795 | -7.50797 | 4500 ft | 222 kts | 323° |
| 2026-05-06 08:37 | 33.16117 | -7.51697 | 4392 ft | 215 kts | 338° |
| 2026-05-06 08:37 | 33.17516 | -7.52217 | 4259 ft | 206 kts | 343° |
| 2026-05-06 08:38 | 33.18872 | -7.52677 | 3990 ft | 200 kts | 344° |
| 2026-05-06 08:38 | 33.20190 | -7.53125 | 3725 ft | 193 kts | 345° |
| 2026-05-06 08:38 | 33.21462 | -7.53559 | 3475 ft | 187 kts | 345° |
| 2026-05-06 08:38 | 33.22698 | -7.53981 | 3233 ft | 182 kts | 345° |
| 2026-05-06 08:39 | 33.23881 | -7.54385 | 2989 ft | 177 kts | 345° |
| 2026-05-06 08:39 | 33.25035 | -7.54779 | 2754 ft | 167 kts | 345° |
| 2026-05-06 08:39 | 33.26098 | -7.55143 | 2560 ft | 151 kts | 345° |
| 2026-05-06 08:39 | 33.27072 | -7.55476 | 2348 ft | 142 kts | 345° |
| 2026-05-06 08:40 | 33.28009 | -7.55796 | 2160 ft | 139 kts | 345° |
| 2026-05-06 08:40 | 33.28931 | -7.56111 | 1975 ft | 137 kts | 346° |
| 2026-05-06 08:40 | 33.29848 | -7.56424 | 1787 ft | 137 kts | 345° |
| 2026-05-06 08:40 | 33.30761 | -7.56738 | 1575 ft | 136 kts | 345° |
| 2026-05-06 08:41 | 33.31667 | -7.57054 | 1388 ft | 136 kts | 345° |
| 2026-05-06 08:41 | 33.32580 | -7.57371 | 1197 ft | 137 kts | 344° |
| 2026-05-06 08:41 | 33.33494 | -7.57683 | 990 ft | 137 kts | 345° |
| 2026-05-06 08:41 | 33.34409 | -7.57987 | 830 ft | 136 kts | 345° |
| 2026-05-06 08:42 | 33.35318 | -7.58295 | 666 ft | 135 kts | 344° |
| 2026-05-06 08:42 | 33.36128 | -7.58572 | 646 ft | 99 kts | 343° |
| 2026-05-06 08:42 | 33.36625 | -7.58744 | 652 ft | 48 kts | 344° |
| 2026-05-06 08:42 | 33.36771 | -7.58790 | 651 ft | 15 kts | 358° |
| 2026-05-06 08:43 | 33.36836 | -7.58701 | 652 ft | 16 kts | 75° |
| 2026-05-06 08:43 | 33.36856 | -7.58614 | 655 ft | 8 kts | 75° |
| 2026-05-06 08:43 | 33.36869 | -7.58555 | 655 ft | 7 kts | 74° |
| 2026-05-06 08:43 | 33.36881 | -7.58506 | 653 ft | 6 kts | 74° |
| 2026-05-06 08:44 | 33.36893 | -7.58454 | 653 ft | 10 kts | 74° |
| 2026-05-06 08:44 | 33.36915 | -7.58363 | 654 ft | 11 kts | 74° |
| 2026-05-06 08:44 | 33.36935 | -7.58280 | 653 ft | 10 kts | 74° |
| 2026-05-06 08:44 | 33.36974 | -7.58232 | 653 ft | 11 kts | 2° |
| 2026-05-06 08:45 | 33.37070 | -7.58260 | 654 ft | 16 kts | 343° |
| 2026-05-06 08:45 | 33.37187 | -7.58300 | 653 ft | 19 kts | 345° |
| 2026-05-06 08:45 | 33.37317 | -7.58342 | 653 ft | 16 kts | 345° |
| 2026-05-06 08:45 | 33.37374 | -7.58361 | 653 ft | 7 kts | 345° |
| 2026-05-06 08:46 | 33.37403 | -7.58344 | 655 ft | 4 kts | 61° |
| 2026-05-06 08:46 | 33.37412 | -7.58313 | 653 ft | 4 kts | 70° |
| 2026-05-06 08:46 | 33.37418 | -7.58289 | 654 ft | 3 kts | 75° |
| 2026-05-06 08:46 | 33.37419 | -7.58282 | 655 ft | 0 kts | 75° |